Latest Weather Observations for Narrandera Airport

IDN60801

Issued at 10:32 pm EDT Saturday 25 March 2017 (issued every 30 minutes, with the page automatically refreshed every 10 minutes)

About weather observations | Map of weather stations | Latest weather observations for NSW | Other Formats
Station Details ID: 074148 Name: NARRANDERA AIRPORT AWS Lat: -34.70 Lon: 146.51 Height: 145.0 m
Data from the previous 72 hours. | See also: Recent months at Narrandera Airport
Date/Time
EDT
Temp
°C
App
Temp
°C
Dew
Point
°C
Rel
Hum
%
Delta-T
°C
Wind Press
QNH
hPa
Press
MSL
hPa
Rain since
9am
mm
Dir  Spd
km/h
Gust
km/h
Spd
kts
Gust
kts
25/10:30pm 22.4 22.5 16.4 69 3.7 ENE 11 15 6 8 1014.5 1013.9 0.0
25/10:00pm 22.4 22.0 16.2 68 3.8 E 13 20 7 11 1014.4 1013.8 0.0
25/09:30pm 23.4 22.8 16.7 66 4.1 E 15 19 8 10 1013.9 1013.3 0.0
25/09:00pm 23.8 23.6 16.8 65 4.3 E 13 17 7 9 1013.6 1013.0 0.0
25/08:30pm 24.0 24.2 16.8 64 4.5 ESE 11 13 6 7 1013.3 1012.7 0.0
25/08:00pm 24.3 24.9 16.8 63 4.6 ESE 9 11 5 6 1012.9 1012.3 0.0
25/07:30pm 25.1 25.7 16.8 60 5.2 ESE 9 11 5 6 1012.7 1012.1 0.0
25/07:00pm 26.3 27.4 17.1 57 5.8 ESE 7 9 4 5 1012.4 1011.8 0.0
25/06:30pm 27.7 27.6 16.0 49 7.2 SE 11 15 6 8 1012.5 1011.9 0.0
25/06:00pm 28.1 28.0 17.0 51 7.0 ESE 13 17 7 9 1012.1 1011.6 0.0
25/05:30pm 28.0 28.0 17.2 52 6.8 SSE 13 17 7 9 1012.1 1011.6 0.0
25/05:00pm 27.9 27.9 17.1 51 6.8 SSE 13 17 7 9 1011.9 1011.4 0.0
25/04:30pm 28.1 28.5 17.3 52 6.8 SSE 11 15 6 8 1011.8 1011.3 0.0
25/04:00pm 27.8 28.0 16.7 50 7.0 S 11 15 6 8 1012.0 1011.5 0.0
25/03:30pm 27.7 27.8 16.6 50 6.9 SSE 11 15 6 8 1012.2 1011.7 0.0
25/03:00pm 28.1 28.0 17.0 51 7.0 SSW 13 17 7 9 1012.2 1011.7 0.0
25/02:30pm 28.3 29.2 16.6 49 7.3 SSE 7 13 4 7 1012.2 1011.7 0.0
25/02:00pm 28.4 29.3 16.7 49 7.3 E 7 13 4 7 1012.6 1012.0 0.0
25/01:30pm 28.3 29.2 16.6 49 7.3 S 7 11 4 6 1013.0 1012.4 0.0
25/01:00pm 27.9 28.3 16.2 49 7.3 NW 9 19 5 10 1013.4 1012.8 0.0
25/12:30pm 27.8 27.9 16.4 50 7.1 NNW 11 20 6 11 1013.9 1013.3 0.0
25/12:00pm 26.2 24.9 15.9 53 6.3 NNE 17 24 9 13 1014.4 1013.8 0.0
25/11:30am 25.5 24.0 15.2 53 6.2 N 17 24 9 13 1014.8 1014.2 0.0
25/11:00am 24.9 23.6 14.7 53 6.1 NNE 15 24 8 13 1015.0 1014.4 0.0
25/10:30am 24.5 22.4 14.6 54 5.9 NE 19 24 10 13 1015.1 1014.5 0.0
25/10:00am 22.5 20.3 14.4 60 4.8 NE 19 24 10 13 1015.1 1014.5 0.0
25/09:30am 22.2 20.1 14.6 62 4.5 NE 19 26 10 14 1015.0 1014.4 0.0
25/09:00am 20.6 18.7 14.3 67 3.7 NE 17 24 9 13 1014.9 1014.3 0.0
25/08:30am 19.5 18.3 14.1 71 3.1 ENE 13 17 7 9 1014.8 1014.2 0.0
25/08:00am 19.2 18.0 14.0 72 3.0 E 13 17 7 9 1014.7 1014.1 0.0
25/07:30am 18.7 17.8 13.8 73 2.8 ENE 11 17 6 9 1014.4 1013.8 0.0
25/07:00am 18.7 17.1 13.8 73 2.8 ENE 15 20 8 11 1014.3 1013.7 0.0
25/06:30am 18.6 16.9 13.7 73 2.8 ENE 15 20 8 11 1014.3 1013.7 0.0
25/06:00am 18.6 17.0 13.9 74 2.7 E 15 20 8 11 1014.3 1013.7 0.0
25/05:30am 18.5 16.9 13.8 74 2.7 E 15 19 8 10 1014.2 1013.6 0.0
25/05:00am 18.7 17.1 13.8 73 2.8 ENE 15 19 8 10 1014.3 1013.7 0.0
25/04:30am 18.7 16.7 13.8 73 2.8 ENE 17 22 9 12 1014.1 1013.5 0.0
25/04:00am 18.9 17.3 14.0 73 2.8 E 15 20 8 11 1014.2 1013.6 0.0
25/03:30am 19.0 17.0 13.8 72 3.0 E 17 22 9 12 1014.4 1013.8 0.0
25/03:00am 19.3 17.3 13.9 71 3.1 E 17 20 9 11 1014.7 1014.1 0.0
25/02:30am 19.7 17.7 13.9 69 3.4 E 17 22 9 12 1015.1 1014.5 0.0
25/02:00am 20.0 17.6 13.9 68 3.5 E 19 28 10 15 1015.2 1014.6 0.0
25/01:30am 20.1 18.1 13.8 67 3.6 E 17 24 9 13 1015.4 1014.8 0.0
25/01:00am 20.7 18.3 13.9 65 4.0 E 19 24 10 13 1015.5 1014.9 0.0
25/12:30am 21.0 18.6 13.7 63 4.2 E 19 26 10 14 1015.6 1015.0 0.0
25/12:00am 21.5 18.8 13.4 60 4.7 E 20 28 11 15 1015.8 1015.2 0.0
 
Date/Time
EDT
Temp
°C
App
Temp
°C
Dew
Point
°C
Rel
Hum
%
Delta-T
°C
Wind Press
QNH
hPa
Press
MSL
hPa
Rain since
9am
mm
Dir  Spd
km/h
Gust
km/h
Spd
kts
Gust
kts
24/11:30pm 21.7 18.9 13.1 58 5.0 E 20 28 11 15 1015.7 1015.1 0.0
24/11:00pm 21.9 19.3 13.3 58 5.0 E 19 22 10 12 1015.7 1015.1 0.0
24/10:30pm 22.4 19.9 13.5 57 5.2 E 19 26 10 14 1015.5 1014.9 0.0
24/10:00pm 22.8 20.3 13.6 56 5.4 E 19 26 10 14 1015.4 1014.8 0.0
24/09:30pm 23.7 20.7 13.6 53 5.9 E 22 32 12 17 1015.3 1014.7 0.0
24/09:00pm 23.4 20.8 13.8 54 5.6 E 20 26 11 14 1015.1 1014.5 0.0
24/08:30pm 24.1 21.7 13.9 53 6.0 ESE 19 24 10 13 1015.0 1014.4 0.0
24/08:00pm 24.5 22.0 14.0 52 6.2 E 20 28 11 15 1014.6 1014.0 0.0
24/07:30pm 25.4 22.1 13.9 49 6.8 E 24 32 13 17 1014.3 1013.7 0.0
24/07:00pm 27.4 25.1 14.1 44 8.0 ENE 19 26 10 14 1014.1 1013.5 0.0
24/06:30pm 28.3 25.7 13.8 41 8.7 ENE 20 26 11 14 1013.7 1013.1 0.0
24/06:00pm 28.8 26.0 14.2 40 8.8 E 22 30 12 16 1013.8 1013.2 0.0
24/05:30pm 29.3 26.9 13.9 39 9.3 ENE 19 28 10 15 1013.8 1013.2 0.0
24/05:00pm 29.7 26.8 13.9 38 9.5 ENE 22 30 12 16 1013.8 1013.2 0.0
24/04:30pm 30.1 27.6 14.2 38 9.7 ENE 20 30 11 16 1013.8 1013.2 0.0
24/04:00pm 29.5 27.0 14.1 39 9.3 ENE 20 28 11 15 1014.1 1013.5 0.0
24/03:30pm 28.8 25.7 13.5 39 9.2 NE 22 30 12 16 1014.4 1013.8 0.0
24/03:00pm 29.2 25.8 13.8 39 9.3 E 24 33 13 18 1014.7 1014.1 0.0
24/02:30pm 28.8 26.2 13.9 40 9.0 ENE 20 35 11 19 1015.1 1014.5 0.0
24/02:00pm 29.3 26.5 14.3 40 9.1 NE 22 35 12 19 1015.6 1015.0 0.0
24/01:30pm 28.9 25.6 13.9 39 9.0 ENE 24 39 13 21 1016.2 1015.6 0.0
24/01:00pm 28.0 24.7 13.9 42 8.5 ENE 24 35 13 19 1016.6 1016.1 0.0
24/12:30pm 27.2 24.0 14.2 44 7.8 ENE 24 37 13 20 1017.2 1016.7 0.0
24/12:00pm 26.8 23.3 13.5 44 7.9 ENE 24 37 13 20 1017.8 1017.3 0.0
24/11:30am 25.0 20.7 13.2 48 6.9 ENE 28 39 15 21 1018.0 1017.5 0.0
24/11:00am 24.4 19.8 13.6 51 6.3 E 30 41 16 22 1018.1 1017.6 0.0
24/10:30am 23.3 18.3 13.5 54 5.7 ENE 32 44 17 24 1018.1 1017.6 0.0
24/10:00am 21.9 16.7 13.5 59 4.9 ENE 33 44 18 24 1017.9 1017.4 0.0
24/09:30am 20.9 16.4 13.8 64 4.1 E 30 43 16 23 1018.1 1017.6 0.0
24/09:00am 19.1 15.3 13.7 71 3.1 E 26 35 14 19 1018.0 1017.5 0.0
24/08:30am 18.4 15.8 13.7 74 2.7 E 20 26 11 14 1018.0 1017.5 0.0
24/08:00am 17.1 15.1 13.8 81 1.9 ESE 17 22 9 12 1017.7 1017.2 0.0
24/07:30am 15.6 13.8 13.3 86 1.3 ESE 15 19 8 10 1017.5 1017.0 0.0
24/07:00am 15.6 13.8 13.3 86 1.3 ESE 15 19 8 10 1017.2 1016.7 0.0
24/06:30am 15.9 13.7 13.4 85 1.4 ESE 17 22 9 12 1017.1 1016.6 0.0
24/06:00am 16.2 13.7 13.5 84 1.5 ESE 19 22 10 12 1016.9 1016.4 0.0
24/05:30am 15.4 13.6 13.4 88 1.1 ESE 15 19 8 10 1016.9 1016.4 0.0
24/05:00am 15.8 14.1 13.6 87 1.2 ESE 15 17 8 9 1016.9 1016.4 0.0
24/04:30am 16.2 14.8 13.5 84 1.5 ESE 13 17 7 9 1016.9 1016.4 0.0
24/04:00am 17.2 15.5 13.7 80 2.0 ESE 15 19 8 10 1016.9 1016.4 0.0
24/03:30am 16.9 15.6 13.8 82 1.8 ESE 13 17 7 9 1017.1 1016.6 0.0
24/03:00am 17.6 16.3 13.7 78 2.2 ESE 13 19 7 10 1017.0 1016.5 0.0
24/02:30am 18.1 16.1 14.0 77 2.4 ESE 17 24 9 13 1017.3 1016.8 0.0
24/02:00am 18.5 16.3 14.4 77 2.4 ESE 19 26 10 14 1017.4 1016.9 0.0
24/01:30am 18.3 16.1 14.4 78 2.3 ESE 19 26 10 14 1017.2 1016.7 0.0
24/01:00am 18.7 17.0 14.6 77 2.4 ESE 17 22 9 12 1017.3 1016.8 0.0
24/12:30am 19.0 16.8 14.5 75 2.6 SE 19 24 10 13 1017.4 1016.9 0.0
24/12:00am 19.1 17.5 15.0 77 2.4 SE 17 20 9 11 1017.4 1016.9 0.0
 
Date/Time
EDT
Temp
°C
App
Temp
°C
Dew
Point
°C
Rel
Hum
%
Delta-T
°C
Wind Press
QNH
hPa
Press
MSL
hPa
Rain since
9am
mm
Dir  Spd
km/h
Gust
km/h
Spd
kts
Gust
kts
23/11:30pm 19.4 17.9 15.3 77 2.4 ESE 17 24 9 13 1017.3 1016.8 0.0
23/11:00pm 19.2 18.5 15.5 79 2.2 ESE 13 17 7 9 1017.3 1016.8 0.0
23/10:30pm 19.4 18.7 15.5 78 2.3 E 13 17 7 9 1017.4 1016.9 0.0
23/10:00pm 20.0 19.4 15.6 76 2.6 ESE 13 19 7 10 1017.4 1016.9 0.0
23/09:30pm 20.3 19.3 15.5 74 2.9 ESE 15 17 8 9 1017.3 1016.8 0.0
23/09:00pm 20.6 19.2 15.6 73 3.0 ESE 17 20 9 11 1017.0 1016.5 0.0
23/08:30pm 20.7 19.4 15.7 73 3.0 ESE 17 20 9 11 1016.5 1016.0 0.0
23/08:00pm 21.4 19.6 15.5 69 3.5 ESE 19 26 10 14 1016.0 1015.4 0.0
23/07:30pm 21.7 20.3 15.5 68 3.7 ESE 17 22 9 12 1015.8 1015.2 0.0
23/07:00pm 22.3 20.7 15.9 67 3.9 ESE 19 26 10 14 1015.4 1014.8 0.0
23/06:30pm 23.2 20.6 15.8 63 4.5 ESE 24 30 13 16 1015.3 1014.7 0.0
23/06:00pm 24.5 21.1 15.7 58 5.4 E 28 37 15 20 1014.9 1014.3 0.0
23/05:30pm 24.8 21.4 15.7 57 5.5 ESE 28 35 15 19 1015.0 1014.4 0.0
23/05:00pm 24.9 22.4 16.1 58 5.4 E 24 32 13 17 1015.2 1014.6 0.0
23/04:30pm 25.1 23.1 16.5 59 5.3 E 22 28 12 15 1015.2 1014.6 0.0
23/04:00pm 25.4 23.3 16.3 57 5.6 E 22 26 12 14 1015.3 1014.7 0.0
23/03:30pm 26.5 24.0 16.1 52 6.4 E 24 32 13 17 1015.2 1014.6 0.0
23/03:00pm 26.1 23.6 16.1 54 6.2 ENE 24 30 13 16 1015.2 1014.6 0.0
23/02:30pm 26.1 23.5 15.8 53 6.3 ENE 24 32 13 17 1015.4 1014.8 0.0
23/02:00pm 25.8 23.7 16.1 55 6.0 E 22 30 12 16 1015.6 1015.0 0.0
23/01:30pm 25.5 23.7 16.1 56 5.8 E 20 28 11 15 1015.8 1015.2 0.0
23/01:00pm 25.7 23.9 16.0 55 6.0 ENE 20 30 11 16 1016.1 1015.5 0.0
23/12:30pm 25.5 23.7 16.1 56 5.8 ENE 20 28 11 15 1016.2 1015.6 0.0
23/12:00pm 25.9 23.7 15.9 54 6.1 ENE 22 30 12 16 1016.4 1015.8 0.0
23/11:30am 25.9 23.9 15.6 53 6.3 E 20 30 11 16 1016.7 1016.2 0.0
23/11:00am 24.2 21.4 15.4 58 5.3 ENE 24 32 13 17 1016.7 1016.2 0.0
23/10:30am 23.1 20.2 15.2 61 4.7 ENE 24 33 13 18 1016.6 1016.1 0.0
23/10:00am 22.2 19.2 14.8 63 4.4 ENE 24 32 13 17 1016.4 1015.8 0.0
23/09:30am 21.9 19.0 15.0 65 4.1 E 24 32 13 17 1016.4 1015.8 0.0
23/09:00am 20.9 18.3 15.0 69 3.5 E 22 32 12 17 1016.1 1015.5 10.2
23/08:30am 20.7 19.5 16.1 75 2.8 ESE 17 24 9 13 1016.2 1015.6 10.2
23/08:00am 20.1 18.5 16.1 78 2.4 ESE 19 22 10 12 1015.9 1015.3 10.2
23/07:30am 19.4 17.8 15.9 80 2.1 E 19 22 10 12 1015.7 1015.1 10.2
23/07:00am 19.9 18.1 15.5 76 2.6 E 19 26 10 14 1015.5 1014.9 10.2
23/06:30am 20.4 18.1 15.8 75 2.8 E 22 30 12 16 1015.1 1014.5 10.2
23/06:00am 20.3 18.9 16.9 81 2.1 E 20 26 11 14 1014.8 1014.2 10.2
23/05:30am 20.2 18.8 17.0 82 2.0 E 20 24 11 13 1014.6 1014.0 10.2
23/05:00am 20.3 19.0 17.3 83 1.8 E 20 26 11 14 1014.6 1014.0 10.2
23/04:30am 20.5 19.2 17.3 82 2.0 E 20 24 11 13 1014.6 1014.0 10.2
23/04:00am 20.5 19.5 17.5 83 1.9 ESE 19 24 10 13 1014.7 1014.1 10.2
23/03:30am 20.3 19.8 17.7 85 1.6 ESE 17 20 9 11 1014.5 1013.9 10.2
23/03:00am 20.5 20.4 17.9 85 1.6 E 15 20 8 11 1014.5 1013.9 10.2
23/02:30am 19.9 20.9 17.7 87 1.4 SE 9 11 5 6 1014.5 1013.9 10.2
23/02:00am 20.2 21.7 17.6 85 1.6 ESE 6 7 3 4 1014.6 1014.0 10.2
23/01:30am 20.7 21.4 17.9 84 1.7 ESE 11 13 6 7 1014.5 1013.9 10.2
23/01:00am 20.9 21.7 17.3 80 2.2 ESE 9 13 5 7 1014.3 1013.7 10.2
23/12:30am 21.3 22.4 17.9 81 2.1 ESE 9 13 5 7 1014.4 1013.8 10.2
23/12:00am 21.2 21.5 17.8 81 2.1 SE 13 15 7 8 1014.8 1014.2 10.2
 
Date/Time
EDT
Temp
°C
App
Temp
°C
Dew
Point
°C
Rel
Hum
%
Delta-T
°C
Wind Press
QNH
hPa
Press
MSL
hPa
Rain since
9am
mm
Dir  Spd
km/h
Gust
km/h
Spd
kts
Gust
kts
22/11:30pm 21.2 23.8 18.4 84 1.8 NE 2 7 1 4 1014.7 1014.1 10.2
22/11:00pm 21.8 23.2 18.6 82 2.0 S 9 11 5 6 1014.6 1014.0 10.2

Other Formats:

Comma delimited format used in spreadsheet applications
http://www.bom.gov.au/fwo/IDN60801/IDN60801.95706.axf

JavaScript Object Notation format (JSON) in row-major order
http://www.bom.gov.au/fwo/IDN60801/IDN60801.95706.json